Quick Links (Output Below):   Max & Min Temps   /   Climate Reports   /   Zone Forecasts
River Forecasts   /   Forestry Forecasts   /   Aviation Forecasts   /   Radars   /   Features

Terminal Aerodrome Forecast (Texarkana)

Pick a Site:
Arkadelphia | El Dorado | Fayetteville | Fort Smith | Harrison | Highfill | Hot Springs | Jonesboro
Little Rock | Monticello | Mountain Home | Pine Bluff | Texarkana
 Forecast 

KTXK 301136Z 3012/0112 09004KT P6SM SCT120
     FM301500 12005KT P6SM FEW120 SCT250
     FM301900 10005KT P6SM FEW050 SCT250
     FM010000 14003KT P6SM FEW250=


 Latest METARs (Observations) 
How to Decode METARs
17Z KTXK 301653Z 10005KT 10SM CLR 31/20 A3003 RMK AO2 SLP165
         T03110200
         
16Z KTXK 301553Z VRB05KT 10SM CLR 30/20 A3005 RMK AO2 SLP169
         T03000200
         
15Z KTXK 301453Z VRB04KT 10SM CLR 28/20 A3005 RMK AO2 SLP168 T02830200
         51007
         
14Z KTXK 301353Z 13004KT 10SM CLR 26/21 A3004 RMK AO2 SLP167
         T02560206
         
13Z KTXK 301253Z 11003KT 10SM CLR 24/21 A3003 RMK AO2 SLP165
         T02390206
         
12Z KTXK 301153Z 07003KT 5SM BR CLR 23/21 A3003 RMK AO2 SLP162
         T02280211 10233 20217 53009
         
11Z KTXK 301053Z 07004KT 7SM CLR 22/21 A3001 RMK AO2 SLP156
         T02170206
         
10Z KTXK 300953Z AUTO 06003KT 8SM CLR 23/21 A3000 RMK AO2 SLP152
         T02280211
         
09Z KTXK 300853Z AUTO 07004KT 9SM CLR 23/21 A3000 RMK AO2 SLP152
         T02280211 58001
         
08Z KTXK 300753Z AUTO 05003KT 8SM CLR 23/22 A3000 RMK AO2 SLP153
         T02280217
         
***** Today's Observations (Above) *****


Back to Main Page
http://www.srh.noaa.gov/lzk/qfcst.php

USA.gov is the U.S. government's official web portal to all federal, state and local government web resources and services.